バンギ の空港の天気 - METARとTAF

バンギ・ムポコ国際空港 ( FEFF / BGF ) - 中央アフリカ バンギ
飛行場実況気象(Metar)
観測時間01/20 03:00 WAT (01/20 02:00 UTC)
風向・風速静穏 0m/s
視程7000m
天気現象
なし
気温22℃
湿度88%
気圧1011hPa
METARFEFF 200200Z 00000KT 7000 NSC 22/20 Q1011 NOSIG
過去の天気等 Google飛行場航空写真 Wunderground天気予報

過去48時間のMETAR

飛行場予報(TAF)
発表時間: 1/20 00:00 WAT (1/19 23:00 UTC)
予報対象時間: 20日1時 WAT ~ 21日7時 WAT
風向・風速不定 1m/s
視程10km以上
なし
20日4時 WAT ~ 20日6時 WAT に徐々に
視程3000m
天気現象もや
20日8時 WAT ~ 20日10時 WAT に徐々に
視程10km以上
なし
20日15時 WAT ~ 20日17時 WAT に徐々に
視程3000m
天気現象煙霧煙
20日21時 WAT ~ 20日23時 WAT に徐々に
視程10km以上
なし
TAF FEFF 192300Z 2000/2106 VRB02KT CAVOK
BECMG 2003/2005 3000 BR
BECMG 2007/2009 CAVOK
BECMG 2014/2016 3000 HZFU
BECMG 2020/2022 CAVOK